Time;durP1;ratioP1;P1;durP2;ratioP2;P2;SDS_P1;SDS_P2;PMS_P1;PMS_P2;Temp;Humidity;BMP_temperature;BMP_pressure;BME280_temperature;BME280_humidity;BME280_pressure;Samples;Min_cycle;Max_cycle;Signal;HPM_P1;HPM_P2
2023/01/27 00:00:11;;;;;;;17.75;9.98;;;4.00;99.90;;;;;;5013655;28;20518;-73
2023/01/27 00:02:38;;;;;;;19.05;11.10;;;4.00;99.90;;;;;;5016112;28;20042;-75
2023/01/27 00:05:04;;;;;;;20.98;9.98;;;4.00;99.90;;;;;;5015387;28;20042;-75
2023/01/27 00:07:29;;;;;;;22.38;11.68;;;4.00;99.90;;;;;;5013993;28;20062;-75
2023/01/27 00:09:55;;;;;;;23.17;11.52;;;4.00;99.90;;;;;;5015284;28;20076;-75
2023/01/27 00:15:09;;;;;;;23.35;12.15;;;3.90;99.90;;;;;;5014505;28;20099;-76
2023/01/27 00:17:35;;;;;;;18.30;10.60;;;3.90;99.90;;;;;;5014928;28;20046;-75
2023/01/27 00:20:01;;;;;;;21.42;10.63;;;3.90;99.90;;;;;;5012127;28;20116;-75
2023/01/27 00:25:11;;;;;;;19.10;9.95;;;3.90;99.90;;;;;;5014420;28;20046;-74
2023/01/27 00:27:36;;;;;;;18.20;9.93;;;3.90;99.90;;;;;;5014509;28;20088;-75
2023/01/27 00:30:04;;;;;;;15.68;8.85;;;3.90;99.90;;;;;;5011163;28;20034;-75
2023/01/27 00:35:16;;;;;;;14.32;9.35;;;3.90;99.90;;;;;;5015332;28;20042;-75
2023/01/27 00:37:43;;;;;;;21.30;9.38;;;3.90;99.90;;;;;;5016462;28;20064;-76
2023/01/27 00:40:13;;;;;;;17.92;8.82;;;3.90;99.90;;;;;;5013562;28;20053;-75
2023/01/27 00:42:38;;;;;;;15.85;8.55;;;3.80;99.90;;;;;;5013715;28;20152;-74
2023/01/27 00:47:51;;;;;;;14.07;8.55;;;3.80;99.90;;;;;;5005199;28;20196;-75
2023/01/27 00:50:16;;;;;;;12.50;6.75;;;3.80;99.90;;;;;;5011708;28;20030;-75
2023/01/27 00:52:43;;;;;;;9.55;5.93;;;3.80;99.90;;;;;;5012952;28;20049;-74
2023/01/27 00:55:09;;;;;;;15.57;6.53;;;3.90;99.90;;;;;;5012679;28;20045;-75
2023/01/27 00:57:38;;;;;;;10.80;5.75;;;3.80;99.90;;;;;;5010793;28;20053;-75
2023/01/27 01:00:05;;;;;;;16.00;6.15;;;3.90;99.90;;;;;;5009199;28;20038;-75
2023/01/27 01:02:31;;;;;;;14.40;6.28;;;3.90;99.90;;;;;;5012543;28;20042;-74
2023/01/27 01:04:57;;;;;;;16.00;6.47;;;3.90;99.90;;;;;;5015077;28;20045;-74
2023/01/27 01:07:23;;;;;;;14.77;5.97;;;3.90;99.90;;;;;;5012945;28;20050;-74
2023/01/27 01:09:48;;;;;;;11.43;6.18;;;3.80;99.90;;;;;;5011908;28;20471;-75
2023/01/27 01:12:14;;;;;;;9.68;6.28;;;3.90;99.90;;;;;;5012714;28;20041;-75
2023/01/27 01:14:40;;;;;;;11.93;6.18;;;3.80;99.90;;;;;;5011268;28;20479;-75
2023/01/27 01:17:05;;;;;;;12.88;6.50;;;3.90;99.90;;;;;;5012113;28;20180;-75
2023/01/27 01:19:31;;;;;;;11.25;5.90;;;3.80;99.90;;;;;;5012210;28;20048;-76
2023/01/27 01:21:56;;;;;;;12.45;6.60;;;3.90;99.90;;;;;;5012377;28;20041;-75
2023/01/27 01:24:22;;;;;;;8.63;5.80;;;3.80;99.90;;;;;;5012694;28;20038;-75
2023/01/27 01:26:48;;;;;;;11.07;6.32;;;3.80;99.90;;;;;;5013654;28;20045;-74
2023/01/27 01:29:14;;;;;;;9.27;5.47;;;3.80;99.90;;;;;;5010930;28;20092;-74
2023/01/27 01:31:39;;;;;;;10.07;5.68;;;3.80;99.90;;;;;;5012221;28;20532;-75
2023/01/27 01:34:05;;;;;;;13.02;4.85;;;3.80;99.90;;;;;;5011001;28;20038;-75
2023/01/27 01:36:31;;;;;;;7.88;5.10;;;3.80;99.90;;;;;;5009046;28;20064;-75
2023/01/27 01:38:57;;;;;;;8.10;3.80;;;3.80;99.90;;;;;;5008960;28;20451;-75
2023/01/27 01:41:22;;;;;;;7.85;4.20;;;3.90;99.90;;;;;;5007475;28;20053;-75
2023/01/27 01:43:49;;;;;;;6.45;3.45;;;3.90;99.90;;;;;;5012923;28;20495;-75
2023/01/27 01:46:16;;;;;;;5.57;3.25;;;4.00;99.90;;;;;;5007455;28;20045;-75
2023/01/27 01:48:54;;;;;;;8.23;3.28;;;4.00;99.90;;;;;;5009765;28;20033;-76
2023/01/27 01:51:33;;;;;;;10.00;3.00;;;4.00;99.90;;;;;;5009553;28;20161;-75
2023/01/27 01:54:10;;;;;;;8.95;3.50;;;4.00;99.90;;;;;;5009608;28;20549;-75
2023/01/27 01:56:40;;;;;;;5.35;3.17;;;4.00;99.90;;;;;;5011293;28;20061;-75
2023/01/27 01:59:16;;;;;;;10.32;4.10;;;4.00;99.90;;;;;;5005703;28;20874;-75
2023/01/27 02:01:41;;;;;;;9.90;4.47;;;4.00;99.90;;;;;;5011980;28;20046;-75
2023/01/27 02:04:16;;;;;;;12.02;3.65;;;4.00;99.90;;;;;;5018382;28;20042;-75
2023/01/27 02:06:51;;;;;;;8.85;3.65;;;4.00;99.90;;;;;;5026543;28;20061;-75
2023/01/27 02:09:19;;;;;;;5.97;3.53;;;3.90;99.90;;;;;;5011392;28;20096;-74
2023/01/27 02:11:45;;;;;;;9.52;3.30;;;4.00;99.90;;;;;;5008296;28;20121;-74
2023/01/27 02:14:13;;;;;;;8.27;3.17;;;4.00;99.90;;;;;;5008232;28;20117;-75
2023/01/27 02:16:39;;;;;;;6.32;2.63;;;4.00;99.90;;;;;;5008605;28;20141;-75
2023/01/27 02:19:09;;;;;;;9.90;2.78;;;4.00;99.90;;;;;;5010837;28;20072;-75
2023/01/27 02:21:35;;;;;;;5.00;2.22;;;4.00;99.90;;;;;;5009172;28;20042;-75
2023/01/27 02:24:09;;;;;;;7.05;2.20;;;4.00;99.90;;;;;;5011446;28;20402;-75
2023/01/27 02:26:41;;;;;;;4.90;1.85;;;4.00;99.90;;;;;;5011144;28;20042;-75
2023/01/27 02:29:10;;;;;;;10.38;2.67;;;4.00;99.90;;;;;;5026528;28;20054;-74
2023/01/27 02:31:35;;;;;;;7.65;2.10;;;4.00;99.90;;;;;;5009700;28;20123;-74
2023/01/27 02:34:09;;;;;;;7.28;1.85;;;4.00;99.90;;;;;;5011782;28;20491;-74
2023/01/27 02:36:42;;;;;;;7.85;2.88;;;4.00;99.90;;;;;;5006704;28;20099;-73
2023/01/27 02:39:09;;;;;;;6.65;2.03;;;4.00;99.90;;;;;;5011911;28;20057;-73
2023/01/27 02:41:46;;;;;;;4.43;1.40;;;4.00;99.90;;;;;;5008932;28;20049;-74
2023/01/27 02:44:12;;;;;;;8.02;1.80;;;4.10;99.90;;;;;;5011875;28;20072;-75
2023/01/27 02:46:38;;;;;;;3.20;1.50;;;4.00;99.90;;;;;;5008072;28;20073;-74
2023/01/27 02:49:03;;;;;;;2.72;1.60;;;4.00;99.90;;;;;;5011073;28;20065;-75
2023/01/27 02:51:29;;;;;;;5.30;1.92;;;4.00;99.90;;;;;;5012683;28;20037;-74
2023/01/27 02:53:55;;;;;;;4.70;1.88;;;4.20;99.90;;;;;;5009588;28;20061;-74
2023/01/27 02:56:21;;;;;;;7.28;1.95;;;4.10;99.90;;;;;;5007532;28;20037;-74
2023/01/27 02:58:46;;;;;;;6.80;1.77;;;4.00;99.90;;;;;;5008807;28;20486;-74
2023/01/27 03:01:12;;;;;;;5.18;1.60;;;4.00;99.90;;;;;;5008463;28;20187;-74
2023/01/27 03:03:45;;;;;;;5.95;1.52;;;4.10;99.90;;;;;;5008754;28;20046;-75
2023/01/27 03:06:12;;;;;;;4.70;1.70;;;4.10;99.90;;;;;;5009513;28;20133;-74
2023/01/27 03:08:37;;;;;;;4.40;1.70;;;4.00;99.90;;;;;;5009668;28;20044;-74
2023/01/27 03:11:03;;;;;;;4.13;1.80;;;4.00;99.90;;;;;;5011934;28;20121;-74
2023/01/27 03:13:29;;;;;;;4.68;1.60;;;4.00;99.90;;;;;;5008854;28;20073;-75
2023/01/27 03:18:46;;;;;;;4.85;1.40;;;4.00;99.90;;;;;;5007692;28;20045;-74
2023/01/27 03:21:12;;;;;;;5.32;1.45;;;3.90;99.90;;;;;;5009412;28;20034;-76
2023/01/27 03:23:38;;;;;;;3.63;1.77;;;4.00;99.90;;;;;;5006889;28;20074;-75
2023/01/27 03:26:07;;;;;;;6.25;1.60;;;3.90;99.90;;;;;;5012117;28;20088;-74
2023/01/27 03:28:33;;;;;;;4.00;1.50;;;3.90;99.90;;;;;;5012557;28;20111;-75
2023/01/27 03:31:05;;;;;;;9.32;1.83;;;3.90;99.90;;;;;;5008340;28;20451;-74
2023/01/27 03:33:31;;;;;;;8.52;1.90;;;3.90;99.90;;;;;;5022297;28;20065;-74
2023/01/27 03:46:57;;;;;;;5.68;1.80;;;3.80;99.90;;;;;;5012949;28;20046;-76
2023/01/27 03:49:23;;;;;;;3.65;1.65;;;3.80;99.90;;;;;;5009322;28;21594;-74
2023/01/27 03:51:48;;;;;;;4.60;1.50;;;3.80;99.90;;;;;;5009190;28;20042;-75
2023/01/27 03:54:14;;;;;;;4.97;1.80;;;3.70;99.90;;;;;;5011286;28;20034;-75
2023/01/27 03:56:40;;;;;;;5.80;1.42;;;3.70;99.90;;;;;;5011664;28;20037;-74
2023/01/27 03:59:05;;;;;;;6.63;1.80;;;3.70;99.90;;;;;;5012043;28;20044;-74
2023/01/27 04:01:31;;;;;;;4.15;1.50;;;3.70;99.90;;;;;;5009042;28;20044;-75
2023/01/27 04:06:52;;;;;;;6.30;1.58;;;3.70;99.90;;;;;;5010578;28;20046;-75
2023/01/27 04:09:32;;;;;;;5.03;1.48;;;3.60;99.90;;;;;;5012023;28;20530;-75
2023/01/27 04:12:00;;;;;;;2.65;1.17;;;3.60;99.90;;;;;;5010408;28;20065;-74
2023/01/27 04:14:40;;;;;;;5.05;1.40;;;3.60;99.90;;;;;;5010785;28;20049;-75
2023/01/27 04:17:13;;;;;;;7.85;1.30;;;3.60;99.90;;;;;;5014916;28;20046;-74
2023/01/27 04:19:39;;;;;;;4.20;1.63;;;3.60;99.90;;;;;;5015115;28;20046;-75
2023/01/27 04:22:07;;;;;;;5.25;1.85;;;3.60;99.90;;;;;;5014748;28;20038;-75
2023/01/27 04:24:33;;;;;;;4.47;1.60;;;3.60;99.90;;;;;;5016605;28;20379;-75
2023/01/27 04:27:06;;;;;;;8.65;1.80;;;3.60;99.90;;;;;;5014466;28;20045;-74
2023/01/27 04:29:33;;;;;;;7.32;1.80;;;3.60;99.90;;;;;;5014301;28;20038;-74
2023/01/27 04:32:00;;;;;;;4.45;1.67;;;3.60;99.90;;;;;;5013238;28;20038;-75
2023/01/27 04:34:26;;;;;;;5.45;1.88;;;3.60;99.90;;;;;;5010889;28;20177;-74
2023/01/27 04:36:53;;;;;;;4.82;1.88;;;3.60;99.90;;;;;;5009151;28;20128;-75
2023/01/27 04:39:19;;;;;;;4.07;1.83;;;3.60;99.90;;;;;;5010233;28;20037;-75
2023/01/27 04:41:45;;;;;;;4.00;1.80;;;3.60;99.90;;;;;;5010349;28;20403;-75
2023/01/27 04:44:11;;;;;;;12.13;2.55;;;3.50;99.90;;;;;;5011486;28;20034;-74
2023/01/27 04:46:37;;;;;;;6.88;1.77;;;3.50;99.90;;;;;;5011554;28;20042;-75
2023/01/27 04:49:04;;;;;;;5.32;1.98;;;3.70;99.90;;;;;;5013127;28;20041;-75
2023/01/27 04:51:30;;;;;;;4.47;2.10;;;3.60;99.90;;;;;;5011932;28;20081;-75
2023/01/27 04:53:55;;;;;;;3.35;1.80;;;3.60;99.90;;;;;;5013392;28;20092;-76
2023/01/27 04:56:26;;;;;;;7.13;2.25;;;3.60;99.90;;;;;;5012143;28;20043;-75
2023/01/27 04:58:52;;;;;;;3.88;1.77;;;3.60;99.90;;;;;;5012639;28;20056;-75
2023/01/27 05:01:18;;;;;;;7.25;2.47;;;3.60;99.90;;;;;;5012251;28;20407;-74
2023/01/27 05:03:44;;;;;;;5.28;2.28;;;3.60;99.90;;;;;;5011335;28;20046;-75
2023/01/27 05:06:10;;;;;;;3.60;2.20;;;3.60;99.90;;;;;;5021539;28;20042;-75
2023/01/27 05:08:36;;;;;;;6.82;2.00;;;3.60;99.90;;;;;;5029129;28;20046;-74
2023/01/27 05:11:02;;;;;;;7.57;2.55;;;3.60;99.90;;;;;;5016900;28;20053;-75
2023/01/27 05:13:27;;;;;;;5.03;2.25;;;3.60;99.90;;;;;;5011268;28;20064;-75
2023/01/27 05:16:10;;;;;;;6.35;2.05;;;3.50;99.90;;;;;;5009400;28;20044;-75
2023/01/27 05:18:36;;;;;;;6.88;2.65;;;3.60;99.90;;;;;;4994001;28;20057;-75
2023/01/27 05:21:03;;;;;;;7.13;2.55;;;3.60;99.90;;;;;;5013540;28;20057;-75
2023/01/27 05:23:35;;;;;;;5.63;2.42;;;3.60;99.90;;;;;;5010856;28;20458;-75
2023/01/27 05:26:10;;;;;;;5.28;2.55;;;3.60;99.90;;;;;;5010650;28;20045;-74
2023/01/27 05:28:37;;;;;;;5.78;2.50;;;3.60;99.90;;;;;;5012112;28;20045;-75
2023/01/27 05:31:09;;;;;;;9.50;2.03;;;3.50;99.90;;;;;;5011750;28;20053;-75
2023/01/27 05:33:35;;;;;;;3.33;1.80;;;3.60;99.90;;;;;;5011346;28;20069;-75
2023/01/27 05:36:03;;;;;;;3.88;1.90;;;3.60;99.90;;;;;;5008986;28;21250;-74
2023/01/27 05:38:30;;;;;;;3.72;1.98;;;3.70;99.90;;;;;;5010214;28;20125;-75
2023/01/27 05:40:57;;;;;;;3.75;1.67;;;3.70;99.90;;;;;;5011204;28;20046;-75
2023/01/27 05:43:24;;;;;;;7.40;1.90;;;3.70;99.90;;;;;;5014100;28;20117;-74
2023/01/27 05:45:49;;;;;;;8.00;1.90;;;3.60;99.90;;;;;;5008882;28;20526;-75
2023/01/27 05:48:15;;;;;;;3.47;1.98;;;3.70;99.90;;;;;;5012708;28;20121;-76
2023/01/27 05:50:40;;;;;;;4.50;1.90;;;3.60;99.90;;;;;;5009294;28;20049;-76
2023/01/27 05:53:06;;;;;;;7.03;1.98;;;3.70;99.90;;;;;;5009909;28;20423;-75
2023/01/27 05:55:31;;;;;;;5.35;1.80;;;3.60;99.90;;;;;;5008156;28;20049;-76
2023/01/27 05:57:57;;;;;;;2.85;1.52;;;3.60;99.90;;;;;;5008222;28;20042;-75
2023/01/27 06:00:23;;;;;;;4.20;1.80;;;3.60;99.90;;;;;;5010133;28;20058;-76
2023/01/27 06:02:48;;;;;;;4.10;1.52;;;3.60;99.90;;;;;;5010069;28;20034;-75
2023/01/27 06:05:14;;;;;;;6.90;1.95;;;3.50;99.90;;;;;;5010222;28;20108;-75
2023/01/27 06:07:39;;;;;;;7.40;1.80;;;3.70;99.90;;;;;;5011641;28;20125;-75
2023/01/27 06:10:05;;;;;;;3.03;1.70;;;3.50;99.90;;;;;;5024538;28;20410;-76
2023/01/27 06:12:31;;;;;;;4.90;1.90;;;3.40;99.90;;;;;;5005243;28;20038;-76
2023/01/27 06:14:59;;;;;;;4.38;1.77;;;3.40;99.90;;;;;;5009368;28;20034;-75
2023/01/27 06:17:24;;;;;;;5.95;1.90;;;3.40;99.90;;;;;;5007718;28;20499;-75
2023/01/27 06:19:50;;;;;;;3.83;1.70;;;3.40;99.90;;;;;;5014260;28;20088;-74
2023/01/27 06:22:16;;;;;;;5.00;1.70;;;3.30;99.90;;;;;;5025421;28;20428;-76
2023/01/27 06:24:41;;;;;;;5.90;1.60;;;3.30;99.90;;;;;;5008724;28;20493;-75
2023/01/27 06:27:07;;;;;;;10.90;1.80;;;3.30;99.90;;;;;;5010698;28;20100;-74
2023/01/27 06:29:34;;;;;;;4.40;1.60;;;3.30;99.90;;;;;;4989826;28;20393;-73
2023/01/27 06:31:59;;;;;;;2.33;1.52;;;3.30;99.90;;;;;;5008817;28;20046;-74
2023/01/27 06:34:25;;;;;;;3.28;1.40;;;3.30;99.90;;;;;;5012228;28;20070;-73
2023/01/27 06:36:53;;;;;;;2.45;1.30;;;3.40;99.90;;;;;;5017130;28;20133;-73
2023/01/27 06:39:19;;;;;;;7.38;1.73;;;3.40;99.90;;;;;;5024633;28;20091;-73
2023/01/27 06:41:44;;;;;;;4.85;1.63;;;3.30;99.90;;;;;;5017214;28;20046;-74
2023/01/27 06:44:10;;;;;;;4.13;1.58;;;3.30;99.90;;;;;;5010300;28;20064;-74
2023/01/27 06:46:36;;;;;;;2.15;1.30;;;3.30;99.90;;;;;;5011796;28;20054;-74
2023/01/27 06:49:01;;;;;;;4.55;1.40;;;3.30;99.90;;;;;;5012123;28;20049;-73
2023/01/27 06:51:27;;;;;;;5.60;1.70;;;3.30;99.90;;;;;;5011932;28;20038;-73
2023/01/27 06:53:53;;;;;;;3.30;1.83;;;3.40;99.90;;;;;;5008276;28;20046;-74
2023/01/27 06:56:18;;;;;;;3.35;1.48;;;3.30;99.90;;;;;;5005783;28;20040;-74
2023/01/27 06:58:44;;;;;;;4.60;1.58;;;3.30;99.90;;;;;;5006996;28;20050;-73
2023/01/27 07:01:10;;;;;;;5.13;1.40;;;3.30;99.90;;;;;;5007150;28;20460;-74
2023/01/27 07:03:36;;;;;;;3.85;1.50;;;3.30;99.90;;;;;;5006640;28;20065;-75
2023/01/27 07:06:01;;;;;;;3.20;1.48;;;3.30;99.90;;;;;;5000953;28;20037;-72
2023/01/27 07:08:27;;;;;;;4.10;1.67;;;3.30;99.90;;;;;;5006210;28;20504;-74
2023/01/27 07:10:53;;;;;;;4.05;1.60;;;3.30;99.90;;;;;;5009887;28;20392;-74
2023/01/27 07:13:19;;;;;;;4.22;1.67;;;3.30;99.90;;;;;;5008329;28;20042;-75
2023/01/27 07:15:45;;;;;;;4.13;1.67;;;3.30;99.90;;;;;;5010069;28;20034;-75
2023/01/27 07:18:13;;;;;;;4.57;1.60;;;3.20;99.90;;;;;;5009469;28;20049;-75
2023/01/27 07:20:39;;;;;;;6.57;1.60;;;3.20;99.90;;;;;;5010537;28;20046;-74
2023/01/27 07:23:05;;;;;;;7.13;2.05;;;3.30;99.90;;;;;;5009445;28;20046;-75
2023/01/27 07:25:32;;;;;;;7.20;2.05;;;3.30;99.90;;;;;;5006073;28;20042;-75
2023/01/27 07:28:00;;;;;;;6.57;2.13;;;3.30;99.90;;;;;;5006913;28;20053;-75
2023/01/27 07:30:27;;;;;;;5.73;1.83;;;3.30;99.90;;;;;;5007120;28;20037;-72
2023/01/27 07:32:54;;;;;;;12.15;1.67;;;3.40;99.90;;;;;;5005799;28;20100;-72
2023/01/27 07:35:20;;;;;;;5.03;1.70;;;3.30;99.90;;;;;;5011092;28;20049;-73
2023/01/27 07:37:46;;;;;;;7.28;1.60;;;3.30;99.90;;;;;;5008000;28;20100;-73
2023/01/27 07:40:15;;;;;;;13.55;2.13;;;3.30;99.90;;;;;;5009232;28;20041;-73
2023/01/27 07:42:41;;;;;;;2.55;1.40;;;3.40;99.90;;;;;;5011380;28;20487;-74
2023/01/27 07:45:07;;;;;;;8.18;2.42;;;3.30;99.90;;;;;;5010211;28;20053;-74
2023/01/27 07:47:32;;;;;;;3.97;1.80;;;3.40;99.90;;;;;;5009576;28;20050;-73
2023/01/27 07:49:58;;;;;;;14.95;2.10;;;3.30;99.90;;;;;;5008455;28;20068;-73
2023/01/27 07:52:24;;;;;;;8.57;1.67;;;3.30;99.90;;;;;;5009204;28;20411;-73
2023/01/27 07:54:49;;;;;;;11.80;2.53;;;3.40;99.90;;;;;;5011970;28;20046;-74
2023/01/27 07:57:15;;;;;;;8.25;1.80;;;3.40;99.90;;;;;;5006922;28;20034;-75
2023/01/27 07:59:40;;;;;;;13.52;2.90;;;3.30;99.90;;;;;;5007590;28;20038;-74
2023/01/27 08:02:08;;;;;;;4.43;1.98;;;3.40;99.90;;;;;;5009567;28;20487;-75
2023/01/27 08:04:33;;;;;;;4.18;1.90;;;3.40;99.90;;;;;;5005656;28;20038;-74
2023/01/27 08:07:00;;;;;;;8.98;1.98;;;3.80;99.90;;;;;;5023025;28;20057;-73
2023/01/27 08:09:26;;;;;;;12.55;2.45;;;3.40;99.90;;;;;;5010546;28;20038;-72
2023/01/27 08:11:51;;;;;;;11.30;2.60;;;3.40;99.90;;;;;;5012318;28;20061;-74
2023/01/27 08:14:17;;;;;;;10.73;2.42;;;3.40;99.90;;;;;;5013297;28;20038;-74
2023/01/27 08:16:42;;;;;;;10.73;1.75;;;3.40;99.90;;;;;;5011750;28;20042;-73
2023/01/27 08:19:08;;;;;;;3.83;1.70;;;3.40;99.90;;;;;;5012415;28;20530;-73
2023/01/27 08:21:34;;;;;;;10.38;2.13;;;3.40;99.90;;;;;;5013756;28;20180;-74
2023/01/27 08:23:59;;;;;;;10.65;2.78;;;3.40;99.90;;;;;;5010965;28;20545;-73
2023/01/27 08:26:26;;;;;;;9.50;2.45;;;4.10;99.90;;;;;;5012369;28;20038;-72
2023/01/27 08:28:52;;;;;;;5.70;1.80;;;3.40;99.90;;;;;;5007476;28;20663;-74
2023/01/27 08:31:18;;;;;;;9.43;2.53;;;3.40;99.90;;;;;;5010619;28;20041;-72
2023/01/27 08:33:45;;;;;;;9.15;2.55;;;3.40;99.90;;;;;;5006872;28;20483;-72
2023/01/27 08:36:15;;;;;;;3.47;1.73;;;3.40;99.90;;;;;;5012019;28;20041;-73
2023/01/27 08:38:42;;;;;;;8.68;2.13;;;3.50;99.90;;;;;;5011591;28;20422;-72
2023/01/27 08:41:11;;;;;;;6.85;2.35;;;3.50;99.90;;;;;;5012885;28;20571;-72
2023/01/27 08:43:37;;;;;;;6.00;2.42;;;3.50;99.90;;;;;;5007232;28;20073;-73
2023/01/27 08:46:05;;;;;;;7.20;1.85;;;3.50;99.90;;;;;;5010427;28;20037;-73
2023/01/27 08:48:31;;;;;;;10.45;2.53;;;3.60;99.90;;;;;;5012922;28;20108;-74
2023/01/27 08:50:58;;;;;;;9.10;2.53;;;3.60;99.90;;;;;;5011528;28;20057;-73
2023/01/27 08:53:25;;;;;;;4.80;2.00;;;3.60;99.90;;;;;;5006955;28;20188;-73
2023/01/27 08:55:54;;;;;;;6.43;2.33;;;3.60;99.90;;;;;;5013918;28;20561;-73
2023/01/27 08:58:20;;;;;;;6.50;1.95;;;3.60;99.90;;;;;;5007542;28;20057;-73
2023/01/27 09:00:46;;;;;;;6.00;2.28;;;3.70;99.90;;;;;;5010477;28;20041;-73
2023/01/27 09:03:12;;;;;;;7.28;2.25;;;3.70;99.90;;;;;;5014736;28;20037;-72
2023/01/27 09:05:39;;;;;;;7.43;2.45;;;3.70;99.90;;;;;;5014080;28;20180;-73
2023/01/27 09:08:05;;;;;;;8.90;2.67;;;3.70;99.90;;;;;;5013378;28;20054;-73
2023/01/27 09:10:31;;;;;;;8.85;2.28;;;3.70;99.90;;;;;;5013046;28;20048;-72
2023/01/27 09:12:57;;;;;;;6.57;2.30;;;3.70;99.90;;;;;;5013617;28;20042;-73
2023/01/27 09:15:23;;;;;;;10.88;2.60;;;3.80;99.90;;;;;;5012748;28;20038;-73
2023/01/27 09:17:48;;;;;;;7.90;2.40;;;3.80;99.90;;;;;;5014896;28;20045;-73
2023/01/27 09:20:14;;;;;;;9.10;2.42;;;3.90;99.90;;;;;;5011812;28;20124;-73
2023/01/27 09:22:41;;;;;;;5.53;2.38;;;3.90;99.90;;;;;;5009831;28;20057;-73
2023/01/27 09:25:10;;;;;;;6.68;2.60;;;3.90;99.90;;;;;;5011796;28;20546;-72
2023/01/27 09:27:36;;;;;;;7.55;2.83;;;4.00;99.90;;;;;;5015284;28;20060;-72
2023/01/27 09:30:02;;;;;;;6.55;2.78;;;4.30;99.90;;;;;;5013211;28;20121;-73
2023/01/27 09:32:27;;;;;;;7.00;2.40;;;4.00;99.90;;;;;;5021459;28;20124;-72
2023/01/27 09:34:53;;;;;;;5.43;2.03;;;3.90;99.90;;;;;;5013837;28;20038;-72
2023/01/27 09:37:19;;;;;;;6.75;2.67;;;4.10;99.90;;;;;;5016621;28;20071;-72
2023/01/27 09:39:52;;;;;;;5.00;2.30;;;4.10;99.90;;;;;;5013550;28;20072;-74
2023/01/27 09:42:49;;;;;;;4.95;2.15;;;4.10;99.90;;;;;;5014464;28;20495;-73
2023/01/27 09:45:14;;;;;;;5.00;2.05;;;4.10;99.90;;;;;;5010480;28;20050;-74
2023/01/27 09:48:04;;;;;;;7.75;2.22;;;5.10;99.90;;;;;;5013809;28;20045;-74
2023/01/27 09:51:10;;;;;;;5.88;2.08;;;4.30;99.90;;;;;;5015471;28;20049;-73
2023/01/27 09:54:13;;;;;;;2.58;1.77;;;4.20;99.90;;;;;;4990585;28;20073;-73
2023/01/27 09:56:57;;;;;;;4.22;1.58;;;4.20;99.90;;;;;;5007279;28;20534;-72
2023/01/27 09:59:46;;;;;;;5.47;1.80;;;4.20;99.90;;;;;;5009880;28;20457;-72
2023/01/27 10:02:47;;;;;;;3.30;1.80;;;4.20;99.90;;;;;;5008108;28;20064;-72
2023/01/27 10:05:37;;;;;;;4.25;2.00;;;4.20;99.90;;;;;;5017544;28;20088;-72
2023/01/27 10:08:38;;;;;;;3.55;2.17;;;4.20;99.90;;;;;;5012892;28;20054;-71
2023/01/27 10:11:31;;;;;;;6.72;1.88;;;4.20;99.90;;;;;;5005864;28;20139;-71
2023/01/27 10:14:14;;;;;;;6.63;2.10;;;4.20;99.90;;;;;;4982418;28;20495;-73
2023/01/27 10:17:23;;;;;;;6.68;2.40;;;4.10;99.90;;;;;;5011250;28;20050;-73
2023/01/27 10:19:57;;;;;;;5.47;2.10;;;4.20;99.90;;;;;;5006931;28;20049;-73
2023/01/27 10:22:46;;;;;;;5.20;2.08;;;4.20;99.90;;;;;;5012418;28;20056;-73
2023/01/27 10:25:33;;;;;;;4.28;1.52;;;4.20;99.90;;;;;;5016755;28;20522;-71
2023/01/27 10:28:09;;;;;;;5.90;1.75;;;4.20;99.90;;;;;;5018040;28;21787;-71
2023/01/27 10:30:36;;;;;;;4.13;1.50;;;4.20;99.90;;;;;;5006793;28;20058;-71
2023/01/27 10:33:42;;;;;;;3.28;1.52;;;4.20;99.90;;;;;;5010654;28;20038;-71
2023/01/27 10:36:20;;;;;;;2.90;1.58;;;4.20;99.90;;;;;;4991675;28;20058;-71
2023/01/27 10:38:58;;;;;;;3.70;1.45;;;4.20;99.90;;;;;;5011767;28;20050;-72
2023/01/27 10:41:33;;;;;;;2.95;1.90;;;4.20;99.90;;;;;;5007387;28;20049;-73
2023/01/27 10:44:20;;;;;;;1.92;1.48;;;4.30;99.90;;;;;;5014685;28;20116;-72
2023/01/27 10:47:00;;;;;;;5.30;2.20;;;4.30;99.90;;;;;;5008781;28;20096;-72
2023/01/27 10:49:30;;;;;;;;;;;4.20;99.90;;;;;;5016076;28;20056;-71
2023/01/27 10:52:07;;;;;;;4.80;1.83;;;4.10;99.90;;;;;;5010403;28;19948;-71
2023/01/27 10:54:47;;;;;;;3.97;2.10;;;4.10;99.90;;;;;;5015762;28;20491;-71
2023/01/27 10:57:26;;;;;;;3.25;1.80;;;4.10;99.90;;;;;;5019862;28;20038;-71
2023/01/27 11:00:16;;;;;;;2.17;1.65;;;4.10;99.90;;;;;;5010718;28;20042;-72
2023/01/27 11:03:04;;;;;;;4.15;2.40;;;4.00;99.90;;;;;;5031179;28;20526;-71
2023/01/27 11:05:39;;;;;;;3.53;2.10;;;4.10;99.90;;;;;;5012422;28;20522;-71
2023/01/27 11:08:14;;;;;;;6.70;2.25;;;4.10;99.90;;;;;;5017944;28;20426;-71
2023/01/27 11:13:31;;;;;;;4.95;2.83;;;3.90;99.90;;;;;;5010485;28;20054;-72
2023/01/27 11:15:59;;;;;;;3.88;3.20;;;4.00;99.90;;;;;;5009593;28;20589;-71
2023/01/27 11:18:28;;;;;;;7.10;3.28;;;3.90;99.90;;;;;;5008195;28;20053;-72
2023/01/27 11:21:09;;;;;;;8.07;2.97;;;3.90;99.90;;;;;;5011087;28;20143;-71
2023/01/27 11:23:44;;;;;;;5.85;3.13;;;3.90;99.90;;;;;;5013113;28;20054;-72
2023/01/27 11:26:32;;;;;;;4.22;3.20;;;4.50;99.90;;;;;;5009178;28;20042;-71
2023/01/27 11:29:22;;;;;;;5.00;3.30;;;3.90;99.90;;;;;;5012024;28;20045;-71
2023/01/27 11:32:07;;;;;;;6.00;3.38;;;3.90;99.90;;;;;;5011810;28;20607;-71
2023/01/27 11:34:55;;;;;;;7.65;3.58;;;3.80;99.90;;;;;;4994189;28;20052;-71
2023/01/27 11:37:28;;;;;;;4.73;3.20;;;3.80;99.90;;;;;;5007374;28;20046;-71
2023/01/27 11:39:53;;;;;;;5.05;3.58;;;3.80;99.90;;;;;;5003967;28;20042;-71
2023/01/27 11:42:20;;;;;;;5.00;3.28;;;3.80;99.90;;;;;;5008343;28;20045;-72
2023/01/27 11:44:54;;;;;;;4.53;3.50;;;3.80;99.90;;;;;;5012465;28;20038;-72
2023/01/27 11:47:30;;;;;;;6.53;3.67;;;3.80;99.90;;;;;;5012055;28;20437;-72
2023/01/27 11:49:57;;;;;;;5.13;3.60;;;3.80;99.90;;;;;;5010031;28;20117;-72
2023/01/27 11:52:27;;;;;;;5.25;3.42;;;3.80;99.90;;;;;;5009680;28;20038;-70
2023/01/27 11:54:59;;;;;;;6.43;3.85;;;3.90;99.90;;;;;;5011325;28;20451;-71
2023/01/27 11:57:26;;;;;;;5.93;3.47;;;3.70;99.90;;;;;;5031229;28;20042;-71
2023/01/27 12:00:06;;;;;;;7.65;4.15;;;3.70;99.90;;;;;;5012342;28;20109;-71
2023/01/27 12:02:39;;;;;;;5.97;3.80;;;3.70;99.90;;;;;;5010481;28;20049;-70
2023/01/27 12:05:16;;;;;;;6.70;3.90;;;3.80;99.90;;;;;;5004515;28;20111;-71
2023/01/27 12:07:50;;;;;;;4.13;3.10;;;3.70;99.90;;;;;;5010080;28;20492;-71
2023/01/27 12:10:28;;;;;;;5.75;3.40;;;3.80;99.90;;;;;;5006485;28;20273;-71
2023/01/27 12:12:56;;;;;;;4.38;3.88;;;3.70;99.90;;;;;;5026001;28;20041;-71
2023/01/27 12:15:28;;;;;;;5.03;3.85;;;3.70;99.90;;;;;;5013778;28;20049;-72
2023/01/27 12:18:02;;;;;;;5.68;4.07;;;3.70;99.90;;;;;;5010166;28;20128;-71
2023/01/27 12:20:40;;;;;;;4.72;3.92;;;3.70;99.90;;;;;;5011043;28;20042;-71
2023/01/27 12:23:36;;;;;;;6.65;4.32;;;3.70;99.90;;;;;;5015147;28;20069;-71
2023/01/27 12:26:10;;;;;;;5.20;4.32;;;3.70;99.90;;;;;;5001662;28;20046;-72
2023/01/27 12:28:41;;;;;;;5.20;4.57;;;3.70;99.90;;;;;;5011090;28;20054;-72
2023/01/27 12:31:27;;;;;;;8.57;4.50;;;3.70;99.90;;;;;;5014695;28;20406;-72
2023/01/27 12:33:58;;;;;;;5.53;3.92;;;3.70;99.90;;;;;;5013220;28;20103;-71
2023/01/27 12:36:25;;;;;;;5.10;3.05;;;3.70;99.90;;;;;;5011600;28;20516;-71
2023/01/27 12:38:54;;;;;;;5.00;3.72;;;3.70;99.90;;;;;;5012758;28;20082;-72
2023/01/27 12:41:27;;;;;;;5.35;4.07;;;3.70;99.90;;;;;;5013579;28;20041;-70
2023/01/27 12:44:13;;;;;;;5.75;4.07;;;3.70;99.90;;;;;;5008532;28;20380;-71
2023/01/27 12:46:41;;;;;;;4.18;3.30;;;3.70;99.90;;;;;;5011218;28;20133;-71
2023/01/27 12:49:13;;;;;;;7.65;3.72;;;3.60;99.90;;;;;;5012943;28;20042;-71
2023/01/27 12:51:50;;;;;;;5.28;3.35;;;3.60;99.90;;;;;;5010579;28;20042;-71
2023/01/27 12:54:26;;;;;;;5.90;3.78;;;3.60;99.90;;;;;;5025267;28;20042;-72
2023/01/27 12:56:53;;;;;;;4.55;3.15;;;3.60;99.90;;;;;;5013505;28;20199;-72
2023/01/27 12:59:22;;;;;;;4.50;3.35;;;3.60;99.90;;;;;;5011751;28;20491;-72
2023/01/27 13:02:01;;;;;;;5.40;3.40;;;3.60;99.90;;;;;;5011049;28;20046;-72
2023/01/27 13:04:28;;;;;;;4.32;3.00;;;3.60;99.90;;;;;;5012162;28;20045;-71
2023/01/27 13:07:03;;;;;;;4.90;3.83;;;3.60;99.90;;;;;;5012309;28;20488;-71
2023/01/27 13:09:46;;;;;;;4.70;3.50;;;3.70;99.90;;;;;;5011289;28;20076;-73
2023/01/27 13:12:19;;;;;;;5.25;3.55;;;3.70;99.90;;;;;;5012295;28;20038;-73
2023/01/27 13:14:49;;;;;;;7.68;3.15;;;3.70;99.90;;;;;;5013734;28;20041;-73
2023/01/27 13:17:34;;;;;;;4.25;3.28;;;3.70;99.90;;;;;;5007243;28;20409;-72
2023/01/27 13:20:19;;;;;;;4.85;2.97;;;3.70;99.90;;;;;;5006840;28;20128;-72
2023/01/27 13:22:59;;;;;;;5.18;3.15;;;3.70;99.90;;;;;;5010610;28;20120;-71
2023/01/27 13:25:39;;;;;;;4.47;3.25;;;3.70;99.90;;;;;;5012216;28;20049;-73
2023/01/27 13:28:07;;;;;;;4.40;3.47;;;3.70;99.90;;;;;;5014081;28;20046;-72
2023/01/27 13:30:39;;;;;;;5.28;3.70;;;3.70;99.90;;;;;;5011293;28;20787;-72
2023/01/27 13:33:29;;;;;;;3.75;2.95;;;3.70;99.90;;;;;;5011770;28;20078;-72
2023/01/27 13:36:05;;;;;;;4.32;3.00;;;3.70;99.90;;;;;;5009823;28;20041;-73
2023/01/27 13:38:51;;;;;;;7.05;3.78;;;3.70;99.90;;;;;;5011240;28;20038;-72
2023/01/27 13:41:35;;;;;;;4.72;2.70;;;3.70;99.90;;;;;;5011884;28;20034;-72